createdAt,value
2022-09-15T00:01:45.954Z,15.00
2022-09-15T00:04:52.141Z,14.87
2022-09-15T00:07:59.200Z,15.37
2022-09-15T00:11:12.950Z,14.67
2022-09-15T00:14:19.948Z,15.40
2022-09-15T00:17:25.835Z,14.03
2022-09-15T00:20:32.941Z,14.63
2022-09-15T00:23:39.909Z,16.77
2022-09-15T00:26:49.634Z,14.20
2022-09-15T00:29:55.683Z,15.57
2022-09-15T00:33:03.992Z,17.37
2022-09-15T00:36:14.521Z,14.67
2022-09-15T00:39:21.878Z,15.53
2022-09-15T00:42:31.192Z,15.17
2022-09-15T00:45:38.234Z,14.83
2022-09-15T00:48:49.070Z,15.70
2022-09-15T00:52:03.572Z,15.30
2022-09-15T00:55:12.608Z,17.87
2022-09-15T00:58:29.049Z,15.90
2022-09-15T01:01:36.053Z,16.37
2022-09-15T01:04:43.392Z,16.23
2022-09-15T01:07:52.698Z,16.97
2022-09-15T01:10:59.925Z,18.77
2022-09-15T01:14:11.430Z,18.17
2022-09-15T01:17:30.023Z,18.80
2022-09-15T01:20:59.502Z,18.73
2022-09-15T01:24:45.297Z,17.80
2022-09-15T01:28:33.024Z,17.87
2022-09-15T01:32:00.275Z,15.87
2022-09-15T01:35:17.994Z,15.77
2022-09-15T01:38:31.290Z,17.23
2022-09-15T01:41:43.342Z,18.37
2022-09-15T01:44:55.273Z,16.50
2022-09-15T01:48:07.730Z,15.33
2022-09-15T01:51:14.974Z,15.33
2022-09-15T01:54:26.342Z,15.93
2022-09-15T01:57:33.668Z,14.90
2022-09-15T02:00:45.134Z,16.20
2022-09-15T02:04:00.676Z,16.17
2022-09-15T02:07:14.997Z,16.17
2022-09-15T02:10:30.129Z,17.07
2022-09-15T02:13:45.566Z,18.43
2022-09-15T02:16:56.615Z,16.90
2022-09-15T02:20:16.379Z,17.37
2022-09-15T02:23:29.082Z,18.17
2022-09-15T02:26:38.660Z,15.17
2022-09-15T02:29:50.622Z,15.73
2022-09-15T02:33:00.432Z,17.53
2022-09-15T02:36:13.517Z,16.67
2022-09-15T02:39:24.391Z,15.07
2022-09-15T02:42:33.244Z,16.23
2022-09-15T02:45:39.407Z,14.67
2022-09-15T02:48:46.876Z,15.33
2022-09-15T02:51:56.067Z,13.40
2022-09-15T02:55:03.470Z,14.97
2022-09-15T02:58:10.033Z,13.47
2022-09-15T03:01:18.644Z,15.10
2022-09-15T03:04:24.615Z,14.60
2022-09-15T03:07:34.442Z,15.50
2022-09-15T03:10:40.600Z,16.43
2022-09-15T03:13:47.561Z,16.13
2022-09-15T03:16:54.331Z,15.93
2022-09-15T03:20:01.197Z,17.00
2022-09-15T03:23:11.310Z,15.63
2022-09-15T03:26:18.467Z,17.17
2022-09-15T03:29:24.254Z,14.80
2022-09-15T03:32:31.175Z,13.77
2022-09-15T03:35:36.985Z,14.50
2022-09-15T03:38:46.676Z,13.83
2022-09-15T03:41:52.499Z,14.27
2022-09-15T03:44:59.454Z,13.30
2022-09-15T03:48:06.029Z,12.97
2022-09-15T03:51:14.039Z,12.67
2022-09-15T03:54:22.889Z,12.73
2022-09-15T03:57:29.501Z,11.97
2022-09-15T04:00:35.369Z,10.87
2022-09-15T04:03:48.873Z,12.17
2022-09-15T04:06:56.566Z,12.40
2022-09-15T04:10:06.720Z,13.20
2022-09-15T04:13:12.816Z,12.43
2022-09-15T04:16:23.509Z,12.00
2022-09-15T04:19:29.821Z,11.03
2022-09-15T04:22:36.906Z,12.03
2022-09-15T04:25:46.020Z,11.80
2022-09-15T04:28:53.529Z,12.17
2022-09-15T04:31:59.838Z,11.50
2022-09-15T04:35:09.569Z,11.00
2022-09-15T04:38:15.770Z,11.87
2022-09-15T04:41:26.498Z,12.77
2022-09-15T04:44:32.875Z,12.60
2022-09-15T04:47:39.994Z,12.17
2022-09-15T04:50:46.342Z,11.30
2022-09-15T04:53:53.816Z,11.93
2022-09-15T04:57:04.813Z,11.70
2022-09-15T05:00:16.629Z,11.23
2022-09-15T05:03:22.812Z,11.20
2022-09-15T05:06:31.241Z,10.63
2022-09-15T05:09:37.474Z,11.53
2022-09-15T05:12:47.142Z,9.73
2022-09-15T05:15:53.253Z,10.50
2022-09-15T05:19:03.704Z,10.10
2022-09-15T05:22:09.832Z,9.63
2022-09-15T05:25:16.887Z,10.10
2022-09-15T05:28:25.891Z,9.07
2022-09-15T05:31:35.359Z,9.37
2022-09-15T05:34:41.738Z,8.70
2022-09-15T05:37:48.678Z,9.00
2022-09-15T05:40:54.985Z,9.17
2022-09-15T05:44:06.693Z,9.87
2022-09-15T05:47:13.681Z,10.10
2022-09-15T05:50:20.504Z,10.23
2022-09-15T05:53:27.530Z,11.67
2022-09-15T05:56:34.269Z,10.67
2022-09-15T05:59:44.172Z,8.43
2022-09-15T06:02:51.002Z,5.40
2022-09-15T06:06:03.351Z,6.13
2022-09-15T06:09:10.320Z,2.63
2022-09-15T06:12:18.238Z,3.40
2022-09-15T06:15:28.310Z,2.40
2022-09-15T06:18:34.225Z,2.43
2022-09-15T06:21:41.267Z,2.30
2022-09-15T06:24:47.144Z,1.90
2022-09-15T06:27:54.543Z,2.93
2022-09-15T06:31:03.295Z,2.93
2022-09-15T06:34:11.578Z,1.50
2022-09-15T06:37:18.156Z,1.47
2022-09-15T06:40:25.249Z,2.13
2022-09-15T06:43:31.213Z,2.77
2022-09-15T06:46:41.131Z,2.27
2022-09-15T06:49:47.257Z,2.83
2022-09-15T06:52:54.208Z,2.00
2022-09-15T06:56:06.818Z,2.23
2022-09-15T06:59:15.116Z,2.07
2022-09-15T07:02:23.855Z,2.60
2022-09-15T07:05:31.637Z,2.93
2022-09-15T07:08:37.717Z,2.63
2022-09-15T07:11:45.195Z,3.10
2022-09-15T07:14:50.994Z,1.90
2022-09-15T07:18:03.378Z,2.40
2022-09-15T07:21:13.609Z,3.70
2022-09-15T07:24:20.604Z,2.30
2022-09-15T07:27:31.713Z,2.27
2022-09-15T07:30:39.552Z,2.90
2022-09-15T07:33:48.944Z,2.97
2022-09-15T07:36:55.685Z,3.20
2022-09-15T07:40:03.702Z,2.87
2022-09-15T07:43:10.632Z,3.40
2022-09-15T07:46:16.744Z,4.37
2022-09-15T07:49:26.301Z,4.03
2022-09-15T07:52:32.077Z,5.33
2022-09-15T07:55:38.803Z,6.53
2022-09-15T07:58:44.757Z,8.10
2022-09-15T08:01:54.553Z,8.53
2022-09-15T08:05:03.542Z,7.07
2022-09-15T08:08:10.496Z,5.87
2022-09-15T08:11:19.621Z,5.70
2022-09-15T08:14:26.568Z,7.30
2022-09-15T08:17:32.669Z,4.50
2022-09-15T08:20:45.091Z,4.10
2022-09-15T08:23:56.324Z,3.97
2022-09-15T08:27:03.303Z,3.47
2022-09-15T08:30:10.744Z,3.23
2022-09-15T08:33:17.794Z,3.17
2022-09-15T08:36:28.316Z,4.10
2022-09-15T08:39:35.565Z,8.87
2022-09-15T08:42:45.054Z,8.23
2022-09-15T08:46:03.406Z,6.40
2022-09-15T08:49:26.874Z,4.10
2022-09-15T08:52:49.029Z,3.73
2022-09-15T08:55:57.900Z,4.60
2022-09-15T08:59:06.553Z,5.13
2022-09-15T09:02:42.916Z,8.33
2022-09-15T09:06:01.011Z,10.80
2022-09-15T09:09:30.900Z,6.00
2022-09-15T09:12:49.751Z,5.87
2022-09-15T09:16:11.475Z,4.77
2022-09-15T09:20:00.804Z,5.70
2022-09-15T09:23:16.617Z,4.30
2022-09-15T09:26:26.218Z,4.40
2022-09-15T09:29:37.306Z,3.83
2022-09-15T09:32:50.058Z,4.07
2022-09-15T09:35:57.065Z,2.30
2022-09-15T09:39:06.687Z,2.70
2022-09-15T09:42:18.827Z,2.77
2022-09-15T09:45:26.686Z,3.30
2022-09-15T09:48:33.231Z,2.80
2022-09-15T09:51:41.800Z,2.90
2022-09-15T09:54:47.736Z,3.07
2022-09-15T09:57:57.786Z,2.23
2022-09-15T10:01:13.116Z,2.77
2022-09-15T10:04:22.361Z,2.87
2022-09-15T10:07:29.970Z,2.77
2022-09-15T10:10:36.899Z,4.43
2022-09-15T10:13:57.775Z,2.93
2022-09-15T10:17:09.372Z,4.03
2022-09-15T10:20:28.909Z,6.77
2022-09-15T10:23:37.254Z,3.40
2022-09-15T10:26:44.890Z,4.87
2022-09-15T10:29:54.935Z,4.03
2022-09-15T10:33:21.786Z,3.03
2022-09-15T10:36:33.243Z,5.63
2022-09-15T10:39:51.436Z,5.27
2022-09-15T10:43:06.659Z,3.43
2022-09-15T10:46:19.892Z,4.40
2022-09-15T10:49:37.451Z,6.37
2022-09-15T10:53:01.319Z,4.50
2022-09-15T10:56:20.254Z,7.93
2022-09-15T10:59:48.697Z,6.63
2022-09-15T11:03:17.131Z,6.47
2022-09-15T11:06:32.015Z,5.53
2022-09-15T11:09:46.921Z,7.10
2022-09-15T11:13:06.355Z,5.83
2022-09-15T11:16:30.434Z,5.10
2022-09-15T11:19:56.191Z,5.80
2022-09-15T11:23:13.021Z,5.70
2022-09-15T11:26:25.104Z,7.33
2022-09-15T11:29:37.293Z,5.23
2022-09-15T11:32:48.173Z,5.43
2022-09-15T11:36:07.870Z,5.97
2022-09-15T11:39:19.888Z,6.57
2022-09-15T11:42:33.905Z,6.73
2022-09-15T11:45:45.625Z,6.93
2022-09-15T11:48:59.361Z,6.80
2022-09-15T11:52:18.474Z,7.73
2022-09-15T11:55:30.582Z,8.30
2022-09-15T11:58:59.758Z,8.20
2022-09-15T12:02:20.443Z,8.63
2022-09-15T12:05:33.355Z,8.93
2022-09-15T12:08:46.113Z,9.37
2022-09-15T12:11:55.380Z,10.63
2022-09-15T12:15:03.626Z,11.10
2022-09-15T12:18:37.738Z,11.60
2022-09-15T12:21:54.047Z,11.80
2022-09-15T12:25:07.096Z,12.17
2022-09-15T12:28:40.675Z,13.43
2022-09-15T12:31:49.330Z,15.30
2022-09-15T12:35:10.143Z,14.83
2022-09-15T12:38:19.433Z,15.87
2022-09-15T12:41:30.779Z,15.87
2022-09-15T12:44:40.735Z,17.03
2022-09-15T12:47:57.316Z,21.10
2022-09-15T12:51:09.512Z,26.17
2022-09-15T12:54:26.103Z,30.47
2022-09-15T12:57:39.039Z,30.10
2022-09-15T13:01:16.655Z,34.87
2022-09-15T13:04:53.698Z,34.97
2022-09-15T13:08:01.178Z,37.30
2022-09-15T13:11:12.009Z,36.27
2022-09-15T13:14:28.880Z,26.10
2022-09-15T13:17:36.823Z,24.57
2022-09-15T13:20:51.815Z,26.40
2022-09-15T13:23:58.851Z,19.17
2022-09-15T13:27:10.010Z,21.37
2022-09-15T13:30:36.593Z,20.00
2022-09-15T13:38:20.017Z,20.00
2022-09-15T13:41:53.766Z,19.60
2022-09-15T13:45:24.979Z,19.77
2022-09-15T13:48:59.365Z,19.10
2022-09-15T13:52:22.884Z,21.43
2022-09-15T13:55:32.952Z,20.63
2022-09-15T13:58:59.190Z,22.17
2022-09-15T14:02:13.086Z,20.73
2022-09-15T14:05:24.295Z,21.83
2022-09-15T14:08:35.231Z,22.50
2022-09-15T14:11:42.253Z,22.53
2022-09-15T14:14:54.995Z,28.83
2022-09-15T14:18:01.186Z,26.37
2022-09-15T14:21:20.225Z,23.87
2022-09-15T14:24:30.409Z,22.50
2022-09-15T14:27:39.507Z,21.77
2022-09-15T14:30:51.184Z,20.33
2022-09-15T14:33:57.974Z,22.30
2022-09-15T14:37:09.662Z,21.77
2022-09-15T14:40:23.801Z,18.50
2022-09-15T14:43:31.487Z,14.80
2022-09-15T14:46:41.514Z,15.13
2022-09-15T14:49:47.319Z,15.07
2022-09-15T14:53:06.368Z,12.43
2022-09-15T14:56:16.014Z,15.30
2022-09-15T14:59:28.884Z,13.93
2022-09-15T15:02:51.959Z,15.57
2022-09-15T15:06:25.348Z,14.13
2022-09-15T15:09:35.506Z,13.07
2022-09-15T15:12:45.590Z,11.83
2022-09-15T15:15:52.032Z,9.93
2022-09-15T15:18:59.270Z,9.03
2022-09-15T15:22:19.251Z,10.80
2022-09-15T15:25:32.948Z,9.90
2022-09-15T15:28:40.405Z,11.90
2022-09-15T15:31:47.307Z,11.10
2022-09-15T15:34:55.904Z,13.63
2022-09-15T15:38:06.596Z,11.90
2022-09-15T15:41:23.285Z,10.00
2022-09-15T15:44:32.597Z,11.50
2022-09-15T15:47:39.925Z,12.47
2022-09-15T15:50:46.995Z,9.80
2022-09-15T15:53:52.980Z,9.53
2022-09-15T15:57:23.308Z,9.00
2022-09-15T16:00:32.801Z,8.27
2022-09-15T16:03:39.642Z,10.17
2022-09-15T16:06:48.518Z,9.23
2022-09-15T16:09:55.773Z,8.93
2022-09-15T16:13:06.970Z,10.13
2022-09-15T16:16:18.363Z,11.30
2022-09-15T16:19:25.086Z,9.73
2022-09-15T16:22:32.378Z,8.40
2022-09-15T16:25:42.696Z,10.13
2022-09-15T16:28:53.138Z,8.90
2022-09-15T16:31:59.702Z,9.83
2022-09-15T16:35:21.407Z,8.87
2022-09-15T16:38:28.802Z,11.90
2022-09-15T16:41:39.229Z,11.77
2022-09-15T16:44:48.417Z,13.20
2022-09-15T16:47:55.302Z,14.73
2022-09-15T16:51:20.927Z,15.13
2022-09-15T16:54:28.182Z,14.07
2022-09-15T16:57:34.882Z,15.03
2022-09-15T17:00:45.964Z,13.80
2022-09-15T17:03:52.516Z,11.67
2022-09-15T17:06:59.694Z,13.87
2022-09-15T17:10:09.868Z,16.30
2022-09-15T17:13:19.649Z,15.00
2022-09-15T17:16:28.417Z,15.20
2022-09-15T17:19:35.468Z,11.80
2022-09-15T17:22:41.360Z,12.87
2022-09-15T17:25:52.944Z,9.47
2022-09-15T17:28:58.960Z,10.37
2022-09-15T17:32:11.911Z,11.23
2022-09-15T17:35:24.943Z,9.93
2022-09-15T17:38:32.143Z,11.33
2022-09-15T17:41:38.970Z,10.20
2022-09-15T17:44:45.845Z,9.10
2022-09-15T17:47:55.777Z,9.63
2022-09-15T17:51:03.349Z,9.60
2022-09-15T17:54:13.588Z,9.20
2022-09-15T17:57:20.556Z,9.17
2022-09-15T18:00:28.292Z,9.23
2022-09-15T18:03:40.187Z,10.13
2022-09-15T18:06:46.252Z,11.37
2022-09-15T18:09:53.174Z,12.10
2022-09-15T18:13:00.090Z,13.10
2022-09-15T18:16:10.649Z,11.27
2022-09-15T18:19:19.625Z,10.77
2022-09-15T18:22:26.889Z,11.63
2022-09-15T18:25:34.837Z,10.07
2022-09-15T18:28:41.681Z,10.67
2022-09-15T18:31:47.806Z,11.73
2022-09-15T18:34:57.634Z,11.30
2022-09-15T18:38:04.153Z,11.67
2022-09-15T18:41:13.623Z,15.23
2022-09-15T18:44:20.079Z,12.97
2022-09-15T18:47:27.087Z,12.30
2022-09-15T18:50:36.030Z,13.03
2022-09-15T18:53:43.166Z,14.23
2022-09-15T18:56:49.402Z,15.37
2022-09-15T18:59:56.387Z,16.10
2022-09-15T19:03:06.629Z,14.73
2022-09-15T19:06:16.539Z,15.23
2022-09-15T19:09:22.834Z,16.97
2022-09-15T19:12:29.681Z,19.20
2022-09-15T19:15:36.615Z,17.13
2022-09-15T19:18:45.157Z,15.67
2022-09-15T19:21:54.228Z,18.47
2022-09-15T19:25:03.721Z,18.23
2022-09-15T19:28:10.266Z,18.67
2022-09-15T19:31:17.426Z,20.03
2022-09-15T19:34:24.279Z,18.63
2022-09-15T19:37:34.236Z,17.23
2022-09-15T19:40:40.285Z,16.23
2022-09-15T19:43:47.396Z,17.37
2022-09-15T19:46:53.723Z,17.53
2022-09-15T19:50:00.774Z,16.40
2022-09-15T19:53:11.287Z,18.87
2022-09-15T19:56:22.443Z,18.73
2022-09-15T19:59:31.304Z,16.73
2022-09-15T20:07:23.728Z,17.23
2022-09-15T20:10:35.335Z,16.70
2022-09-15T20:13:44.390Z,16.40
2022-09-15T20:16:54.186Z,19.03
2022-09-15T20:20:03.843Z,17.23
2022-09-15T20:23:12.411Z,17.17
2022-09-15T20:26:22.684Z,21.43
2022-09-15T20:29:31.180Z,16.90
2022-09-15T20:32:38.791Z,17.53
2022-09-15T20:35:47.129Z,17.27
2022-09-15T20:38:54.854Z,16.80
2022-09-15T20:42:06.792Z,16.57
2022-09-15T20:45:14.560Z,19.17
2022-09-15T20:48:22.882Z,17.47
2022-09-15T20:51:32.604Z,16.70
2022-09-15T20:54:40.974Z,16.40
2022-09-15T20:57:51.609Z,16.40
2022-09-15T21:01:08.109Z,17.43
2022-09-15T21:04:15.496Z,17.43
2022-09-15T21:07:23.632Z,18.87
2022-09-15T21:10:31.588Z,18.93
2022-09-15T21:13:44.008Z,16.90
2022-09-15T21:16:51.269Z,13.97
2022-09-15T21:19:59.082Z,13.97
2022-09-15T21:23:07.765Z,15.67
2022-09-15T21:26:18.533Z,13.37
2022-09-15T21:29:29.128Z,13.17
2022-09-15T21:32:36.865Z,18.10
2022-09-15T21:35:45.216Z,14.30
2022-09-15T21:38:56.811Z,14.80
2022-09-15T21:42:03.777Z,21.13
2022-09-15T21:45:15.572Z,15.53
2022-09-15T21:48:22.589Z,16.43
2022-09-15T21:51:33.722Z,15.93
2022-09-15T21:54:41.256Z,16.40
2022-09-15T21:57:50.081Z,15.73
2022-09-15T22:01:00.576Z,14.17
2022-09-15T22:04:11.721Z,16.63
2022-09-15T22:07:20.193Z,15.53
2022-09-15T22:10:28.685Z,15.83
2022-09-15T22:13:37.196Z,14.70
2022-09-15T22:16:48.247Z,18.43
2022-09-15T22:19:55.527Z,17.00
2022-09-15T22:23:05.172Z,17.20
2022-09-15T22:26:14.280Z,14.83
2022-09-15T22:29:21.291Z,15.00
2022-09-15T22:32:31.351Z,18.63
2022-09-15T22:35:38.526Z,17.20
2022-09-15T22:38:46.490Z,17.13
2022-09-15T22:41:55.213Z,16.27
2022-09-15T22:45:03.325Z,17.77
2022-09-15T22:48:14.543Z,18.43
2022-09-15T22:51:22.763Z,16.30
2022-09-15T22:54:32.627Z,15.30
2022-09-15T22:57:40.168Z,16.43
2022-09-15T23:00:48.028Z,17.13
2022-09-15T23:03:59.029Z,18.27
2022-09-15T23:07:06.362Z,17.03
2022-09-15T23:10:12.160Z,16.53
2022-09-15T23:13:18.461Z,13.43
2022-09-15T23:16:25.262Z,18.03
2022-09-15T23:19:34.697Z,14.70
2022-09-15T23:22:40.940Z,17.40
2022-09-15T23:25:47.862Z,15.10
2022-09-15T23:28:54.052Z,13.83
2022-09-15T23:32:00.698Z,15.90
2022-09-15T23:35:11.363Z,15.30
2022-09-15T23:38:18.274Z,13.60
2022-09-15T23:41:24.916Z,17.10
2022-09-15T23:44:31.651Z,14.33
2022-09-15T23:47:38.096Z,15.17
2022-09-15T23:50:47.847Z,15.13
2022-09-15T23:53:53.796Z,17.57
2022-09-15T23:57:01.002Z,13.70
